createdAt,value
2022-08-17T00:02:26.768Z,11.27
2022-08-17T00:06:32.133Z,14.00
2022-08-17T00:10:35.963Z,12.13
2022-08-17T00:14:40.060Z,14.90
2022-08-17T00:18:57.648Z,11.20
2022-08-17T00:23:11.638Z,11.63
2022-08-17T00:27:15.083Z,11.53
2022-08-17T00:31:18.370Z,15.33
2022-08-17T00:35:24.701Z,12.70
2022-08-17T00:39:27.981Z,15.03
2022-08-17T00:43:35.261Z,13.37
2022-08-17T00:47:38.563Z,12.93
2022-08-17T00:51:47.532Z,15.10
2022-08-17T00:55:50.825Z,16.83
2022-08-17T01:00:02.271Z,17.00
2022-08-17T01:04:07.190Z,17.23
2022-08-17T01:08:15.378Z,17.33
2022-08-17T01:12:18.892Z,22.73
2022-08-17T01:16:25.211Z,19.20
2022-08-17T01:20:29.672Z,17.57
2022-08-17T01:24:34.901Z,19.60
2022-08-17T01:28:54.491Z,20.03
2022-08-17T01:32:59.177Z,20.63
2022-08-17T01:37:03.400Z,19.13
2022-08-17T01:41:12.611Z,23.40
2022-08-17T01:45:19.169Z,22.67
2022-08-17T01:49:22.582Z,23.20
2022-08-17T01:53:31.065Z,28.17
2022-08-17T01:57:36.161Z,28.33
2022-08-17T02:01:39.913Z,31.60
2022-08-17T02:05:43.664Z,21.00
2022-08-17T02:09:52.603Z,26.27
2022-08-17T02:14:01.037Z,27.57
2022-08-17T02:18:08.552Z,29.70
2022-08-17T02:22:12.022Z,29.33
2022-08-17T02:26:25.745Z,26.40
2022-08-17T02:31:02.201Z,35.53
2022-08-17T02:34:55.236Z,31.73
2022-08-17T02:38:58.738Z,38.03
2022-08-17T02:43:02.066Z,40.07
2022-08-17T02:47:08.803Z,37.33
2022-08-17T02:51:12.174Z,34.53
2022-08-17T02:55:18.369Z,36.47
2022-08-17T02:59:21.626Z,39.40
2022-08-17T03:03:27.782Z,69.07
2022-08-17T03:07:31.870Z,63.57
2022-08-17T03:11:35.653Z,65.83
2022-08-17T03:15:41.512Z,71.33
2022-08-17T03:19:49.102Z,56.00
2022-08-17T03:23:54.405Z,70.90
2022-08-17T03:27:58.796Z,74.70
2022-08-17T03:32:12.765Z,54.53
2022-08-17T03:36:17.608Z,68.90
2022-08-17T03:40:39.885Z,67.90
2022-08-17T03:44:50.066Z,71.93
2022-08-17T03:49:11.025Z,73.63
2022-08-17T03:53:36.209Z,59.37
2022-08-17T03:57:40.069Z,63.33
2022-08-17T04:01:44.627Z,70.87
2022-08-17T04:05:48.922Z,78.83
2022-08-17T04:09:53.836Z,82.17
2022-08-17T04:13:57.415Z,87.43
2022-08-17T04:18:00.997Z,81.03
2022-08-17T04:22:05.810Z,84.50
2022-08-17T04:26:10.605Z,82.57
2022-08-17T04:30:36.118Z,78.57
2022-08-17T04:34:39.838Z,67.30
2022-08-17T04:38:45.702Z,66.63
2022-08-17T04:43:04.130Z,72.50
2022-08-17T04:47:07.489Z,55.23
2022-08-17T04:51:17.754Z,81.77
2022-08-17T04:55:21.022Z,81.30
2022-08-17T04:59:25.878Z,72.60
2022-08-17T05:03:30.001Z,78.20
2022-08-17T05:07:33.222Z,73.03
2022-08-17T05:11:37.776Z,76.23
2022-08-17T05:15:45.115Z,75.20
2022-08-17T05:19:51.877Z,67.63
2022-08-17T05:23:58.483Z,71.67
2022-08-17T05:28:03.014Z,67.07
2022-08-17T05:32:38.089Z,69.00
2022-08-17T05:36:42.114Z,65.73
2022-08-17T05:40:48.274Z,68.20
2022-08-17T05:44:51.463Z,67.67
2022-08-17T05:49:00.370Z,61.63
2022-08-17T05:53:10.987Z,64.37
2022-08-17T05:57:27.765Z,69.03
2022-08-17T06:01:39.833Z,56.67
2022-08-17T06:05:59.083Z,55.47
2022-08-17T06:10:09.246Z,60.50
2022-08-17T06:14:27.844Z,60.30
2022-08-17T06:18:45.566Z,62.87
2022-08-17T06:22:56.662Z,63.30
2022-08-17T06:27:08.384Z,68.20
2022-08-17T06:31:20.093Z,63.97
2022-08-17T06:35:32.003Z,60.83
2022-08-17T06:39:47.631Z,66.27
2022-08-17T06:44:02.057Z,65.30
2022-08-17T06:48:13.954Z,69.97
2022-08-17T06:52:45.423Z,81.37
2022-08-17T06:56:55.199Z,72.90
2022-08-17T07:01:05.085Z,71.13
2022-08-17T07:05:10.134Z,61.57
2022-08-17T07:09:19.897Z,80.80
2022-08-17T07:13:38.776Z,75.37
2022-08-17T07:17:47.247Z,71.67
2022-08-17T07:22:01.598Z,97.67
2022-08-17T07:26:06.828Z,95.83
2022-08-17T07:30:17.594Z,90.33
2022-08-17T07:34:20.827Z,98.87
2022-08-17T07:38:28.402Z,75.70
2022-08-17T07:42:31.753Z,105.23
2022-08-17T07:47:05.385Z,90.17
2022-08-17T07:51:21.939Z,101.80
2022-08-17T07:55:31.509Z,91.07
2022-08-17T07:59:36.763Z,103.57
2022-08-17T08:03:44.877Z,94.27
2022-08-17T08:07:58.072Z,98.60
2022-08-17T08:12:02.071Z,100.13
2022-08-17T08:16:30.362Z,105.73
2022-08-17T08:20:53.525Z,108.27
2022-08-17T08:25:09.272Z,99.57
2022-08-17T08:29:23.448Z,101.70
2022-08-17T08:33:45.874Z,95.73
2022-08-17T08:38:00.763Z,95.93
2022-08-17T08:42:14.358Z,94.50
2022-08-17T08:46:29.214Z,81.57
2022-08-17T08:50:42.803Z,66.33
2022-08-17T08:54:51.363Z,69.93
2022-08-17T08:59:02.111Z,62.67
2022-08-17T09:03:52.353Z,61.03
2022-08-17T09:08:05.538Z,58.63
2022-08-17T09:12:17.996Z,55.47
2022-08-17T09:16:29.916Z,63.03
2022-08-17T09:20:40.678Z,57.37
2022-08-17T09:24:48.522Z,54.47
2022-08-17T09:29:01.540Z,46.03
2022-08-17T09:33:09.498Z,50.17
2022-08-17T09:37:21.760Z,54.40
2022-08-17T09:41:33.713Z,51.40
2022-08-17T09:45:42.874Z,53.60
2022-08-17T09:49:50.781Z,56.23
2022-08-17T09:53:54.363Z,55.00
2022-08-17T09:58:07.614Z,54.07
2022-08-17T10:02:33.046Z,48.20
2022-08-17T10:06:47.721Z,50.37
2022-08-17T10:11:02.370Z,50.30
2022-08-17T10:15:14.879Z,50.20
2022-08-17T10:19:28.045Z,51.43
2022-08-17T10:23:49.724Z,49.07
2022-08-17T10:27:59.220Z,54.60
2022-08-17T10:32:10.454Z,47.83
2022-08-17T10:36:21.850Z,53.03
2022-08-17T10:40:36.094Z,57.77
2022-08-17T10:44:48.255Z,53.43
2022-08-17T10:49:15.306Z,53.77
2022-08-17T10:53:58.639Z,51.73
2022-08-17T10:58:21.149Z,50.87
2022-08-17T11:02:31.561Z,51.07
2022-08-17T11:06:48.637Z,49.30
2022-08-17T11:11:10.885Z,52.77
2022-08-17T11:15:24.806Z,57.80
2022-08-17T11:20:13.753Z,55.97
2022-08-17T11:24:21.191Z,57.60
2022-08-17T11:28:34.423Z,50.77
2022-08-17T11:32:47.079Z,59.17
2022-08-17T11:37:36.208Z,48.57
2022-08-17T11:41:48.965Z,49.03
2022-08-17T11:46:15.690Z,47.33
2022-08-17T11:50:56.317Z,59.57
2022-08-17T11:55:12.402Z,45.77
2022-08-17T11:59:58.417Z,44.80
2022-08-17T12:04:20.936Z,47.77
2022-08-17T12:08:25.047Z,51.87
2022-08-17T12:12:33.496Z,49.20
2022-08-17T12:16:37.704Z,58.00
2022-08-17T12:20:45.148Z,53.23
2022-08-17T12:24:56.712Z,51.40
2022-08-17T12:29:03.043Z,52.07
2022-08-17T12:33:28.198Z,51.20
2022-08-17T12:37:37.018Z,53.90
2022-08-17T12:41:43.385Z,56.80
2022-08-17T12:45:56.966Z,50.30
2022-08-17T12:50:29.738Z,63.07
2022-08-17T12:54:47.981Z,63.05
2022-08-17T12:58:55.652Z,68.70
2022-08-17T13:03:02.796Z,68.27
2022-08-17T13:07:06.065Z,62.00
2022-08-17T13:11:19.502Z,66.13
2022-08-17T13:15:28.354Z,68.73
2022-08-17T13:19:40.932Z,64.63
2022-08-17T13:23:57.091Z,63.57
2022-08-17T13:28:01.813Z,82.37
2022-08-17T13:32:19.786Z,76.57
2022-08-17T13:36:33.782Z,76.57
2022-08-17T13:40:52.005Z,74.83
2022-08-17T13:44:56.803Z,109.23
2022-08-17T13:49:05.029Z,80.87
2022-08-17T13:53:21.085Z,79.73
2022-08-17T13:57:25.812Z,73.00
2022-08-17T14:01:33.364Z,93.03
2022-08-17T14:05:38.103Z,78.07
2022-08-17T14:09:45.991Z,84.97
2022-08-17T14:13:49.299Z,95.60
2022-08-17T14:17:54.332Z,106.77
2022-08-17T14:22:00.619Z,92.73
2022-08-17T14:26:04.448Z,88.27
2022-08-17T14:30:08.968Z,91.83
2022-08-17T14:34:13.794Z,90.03
2022-08-17T14:38:18.988Z,98.13
2022-08-17T14:42:24.864Z,88.23
2022-08-17T14:46:28.570Z,82.37
2022-08-17T14:50:36.315Z,124.20
2022-08-17T14:54:45.193Z,92.03
2022-08-17T14:58:49.288Z,91.07
2022-08-17T15:02:55.192Z,80.40
2022-08-17T15:07:24.287Z,102.23
2022-08-17T15:11:34.727Z,85.57
2022-08-17T15:15:38.200Z,91.87
2022-08-17T15:19:41.842Z,97.63
2022-08-17T15:23:47.931Z,113.93
2022-08-17T15:27:51.814Z,113.90
2022-08-17T15:32:00.481Z,118.13
2022-08-17T15:36:07.782Z,103.37
2022-08-17T15:40:14.356Z,91.00
2022-08-17T15:44:17.767Z,90.60
2022-08-17T15:48:22.789Z,82.03
2022-08-17T15:52:29.787Z,86.17
2022-08-17T15:56:34.575Z,90.70
2022-08-17T16:00:56.796Z,86.47
2022-08-17T16:05:06.437Z,90.73
2022-08-17T16:09:14.829Z,86.27
2022-08-17T16:13:24.110Z,91.77
2022-08-17T16:17:39.681Z,92.30
2022-08-17T16:21:44.518Z,99.77
2022-08-17T16:25:53.858Z,98.00
2022-08-17T16:30:03.044Z,93.80
2022-08-17T16:34:17.372Z,107.57
2022-08-17T16:38:23.163Z,104.40
2022-08-17T16:42:30.584Z,88.97
2022-08-17T16:46:37.403Z,98.83
2022-08-17T16:50:41.901Z,97.10
2022-08-17T16:55:08.039Z,95.93
2022-08-17T16:59:29.925Z,106.00
2022-08-17T17:03:41.856Z,100.73
2022-08-17T17:07:56.667Z,114.00
2022-08-17T17:12:04.568Z,116.10
2022-08-17T17:16:18.405Z,110.37
2022-08-17T17:20:31.529Z,114.10
2022-08-17T17:29:14.287Z,137.17
2022-08-17T17:33:22.583Z,121.83
2022-08-17T17:37:34.710Z,112.33
2022-08-17T17:41:54.961Z,132.80
2022-08-17T17:46:26.784Z,134.20
2022-08-17T17:50:49.999Z,133.73
2022-08-17T17:55:10.489Z,139.13
2022-08-17T17:59:24.122Z,135.67
2022-08-17T18:03:45.250Z,178.07
2022-08-17T18:07:55.420Z,156.97
2022-08-17T18:12:21.082Z,208.27
2022-08-17T18:16:24.994Z,201.37
2022-08-17T18:20:36.074Z,183.43
2022-08-17T18:24:56.524Z,191.00
2022-08-17T18:29:02.930Z,213.00
2022-08-17T18:33:29.238Z,220.63
2022-08-17T18:37:40.715Z,243.30
2022-08-17T18:41:45.296Z,230.50
2022-08-17T18:45:54.763Z,232.53
2022-08-17T18:50:19.706Z,245.23
2022-08-17T18:54:25.238Z,289.40
2022-08-17T18:58:28.893Z,275.07
2022-08-17T19:02:45.280Z,301.70
2022-08-17T19:07:13.653Z,298.50
2022-08-17T19:11:23.328Z,303.00
2022-08-17T19:15:33.781Z,341.87
2022-08-17T19:19:45.835Z,342.40
2022-08-17T19:23:54.633Z,347.03
2022-08-17T19:28:03.645Z,378.70
2022-08-17T19:32:10.191Z,337.40
2022-08-17T19:36:34.869Z,352.77
2022-08-17T19:40:53.823Z,335.27
2022-08-17T19:45:06.667Z,368.60
2022-08-17T19:49:18.874Z,376.20
2022-08-17T19:54:01.761Z,373.70
2022-08-17T19:58:09.594Z,357.77
2022-08-17T20:02:34.702Z,368.63
2022-08-17T20:06:41.306Z,366.50
2022-08-17T20:10:54.967Z,398.00
2022-08-17T20:15:07.074Z,373.87
2022-08-17T20:19:26.175Z,366.77
2022-08-17T20:23:46.030Z,354.67
2022-08-17T20:27:54.807Z,365.30
2022-08-17T20:32:19.945Z,363.20
2022-08-17T20:36:25.886Z,345.07
2022-08-17T20:40:36.380Z,370.70
2022-08-17T20:44:44.381Z,376.63
2022-08-17T20:48:54.424Z,355.03
2022-08-17T20:52:59.499Z,361.30
2022-08-17T20:57:13.669Z,364.47
2022-08-17T21:01:35.684Z,333.13
2022-08-17T21:06:00.356Z,342.73
2022-08-17T21:10:13.994Z,375.47
2022-08-17T21:14:27.371Z,341.40
2022-08-17T21:18:47.297Z,365.83
2022-08-17T21:23:02.814Z,342.13
2022-08-17T21:27:28.147Z,378.77
2022-08-17T21:31:35.969Z,378.60
2022-08-17T21:35:51.512Z,379.27
2022-08-17T21:39:58.807Z,377.90
2022-08-17T21:44:13.368Z,379.80
2022-08-17T21:48:20.635Z,365.77
2022-08-17T21:52:28.966Z,419.03
2022-08-17T21:56:35.582Z,379.70
2022-08-17T22:00:38.995Z,414.80
2022-08-17T22:04:43.723Z,370.70
2022-08-17T22:09:05.813Z,401.00
2022-08-17T22:13:30.408Z,387.93
2022-08-17T22:17:36.066Z,395.50
2022-08-17T22:21:41.447Z,393.93
2022-08-17T22:26:02.279Z,389.23
2022-08-17T22:30:26.222Z,415.47
2022-08-17T22:34:29.460Z,424.10
2022-08-17T22:38:38.094Z,403.03
2022-08-17T22:42:49.242Z,434.50
2022-08-17T22:46:57.125Z,414.67
2022-08-17T22:51:12.835Z,383.83
2022-08-17T22:55:36.105Z,392.87
2022-08-17T22:59:52.673Z,416.37
2022-08-17T23:03:58.214Z,397.30
2022-08-17T23:08:01.569Z,396.27
2022-08-17T23:12:09.689Z,401.70
2022-08-17T23:16:15.003Z,387.47
2022-08-17T23:20:18.865Z,416.83
2022-08-17T23:24:40.832Z,416.73
2022-08-17T23:28:44.953Z,387.70
2022-08-17T23:32:53.551Z,396.90
2022-08-17T23:36:57.757Z,401.40
2022-08-17T23:41:04.474Z,393.30
2022-08-17T23:45:10.834Z,354.93
2022-08-17T23:49:15.386Z,366.83
2022-08-17T23:53:19.712Z,333.40
2022-08-17T23:57:35.103Z,301.47
